Anvik, Alaska
Current Conditions -  °F | °C
As of 9:56 AM on Wednesday 26 Nov 2014 (Local Time) from PANV Reporting Station
Overcast Overcast  
Wind Chill: -2°   Ceiling: 500
Heat Index: 12°   Visibility: 10mi
Dew Point:   Wind: 12mph
Humidity: 85%   Direction: 40°NE
Pressure: 30.32"   Gusts: NA
Location:  62.66°N, 160.21°W
Report Text: PANV 261856Z AUTO 04010KT 10SM OVC005 M11/M13 A3032 RMK AO1
Loading
Personal Weather Stations






























Interactive Weather Map New forecast layout! Learn more

10-Day Weather Forecast

Advertisements
Track Severe Weather on mobile